sensor_id;sensor_type;location;lat;lon;timestamp;P1;durP1;ratioP1;P2;durP2;ratioP2
19679;SDS011;9989;48.962;9.182;2023-03-23T00:01:23;5.60;;;2.40;;
19679;SDS011;9989;48.962;9.182;2023-03-23T00:03:52;7.07;;;2.70;;
19679;SDS011;9989;48.962;9.182;2023-03-23T00:06:18;8.33;;;3.03;;
19679;SDS011;9989;48.962;9.182;2023-03-23T00:08:45;5.97;;;2.60;;
19679;SDS011;9989;48.962;9.182;2023-03-23T00:11:15;7.13;;;2.50;;
19679;SDS011;9989;48.962;9.182;2023-03-23T00:13:41;6.80;;;2.40;;
19679;SDS011;9989;48.962;9.182;2023-03-23T00:16:09;9.03;;;3.10;;
19679;SDS011;9989;48.962;9.182;2023-03-23T00:18:48;7.63;;;2.90;;
19679;SDS011;9989;48.962;9.182;2023-03-23T00:21:18;7.17;;;2.60;;
19679;SDS011;9989;48.962;9.182;2023-03-23T00:23:45;5.00;;;1.70;;
19679;SDS011;9989;48.962;9.182;2023-03-23T00:26:11;3.27;;;1.53;;
19679;SDS011;9989;48.962;9.182;2023-03-23T00:28:37;3.93;;;1.80;;
19679;SDS011;9989;48.962;9.182;2023-03-23T00:31:04;3.53;;;1.40;;
19679;SDS011;9989;48.962;9.182;2023-03-23T00:33:32;4.80;;;1.90;;
19679;SDS011;9989;48.962;9.182;2023-03-23T00:36:03;5.70;;;2.20;;
19679;SDS011;9989;48.962;9.182;2023-03-23T00:38:29;3.10;;;1.60;;
19679;SDS011;9989;48.962;9.182;2023-03-23T00:40:54;5.13;;;1.97;;
19679;SDS011;9989;48.962;9.182;2023-03-23T00:43:22;4.30;;;2.00;;
19679;SDS011;9989;48.962;9.182;2023-03-23T00:45:53;4.07;;;1.90;;
19679;SDS011;9989;48.962;9.182;2023-03-23T00:48:20;4.90;;;2.13;;
19679;SDS011;9989;48.962;9.182;2023-03-23T00:50:47;4.87;;;1.87;;
19679;SDS011;9989;48.962;9.182;2023-03-23T00:53:14;4.53;;;2.10;;
19679;SDS011;9989;48.962;9.182;2023-03-23T00:55:41;7.13;;;2.00;;
19679;SDS011;9989;48.962;9.182;2023-03-23T00:58:07;6.67;;;1.77;;
19679;SDS011;9989;48.962;9.182;2023-03-23T01:00:34;5.80;;;2.00;;
19679;SDS011;9989;48.962;9.182;2023-03-23T01:03:00;4.10;;;1.73;;
19679;SDS011;9989;48.962;9.182;2023-03-23T01:05:25;4.93;;;1.90;;
19679;SDS011;9989;48.962;9.182;2023-03-23T01:07:56;4.70;;;1.87;;
19679;SDS011;9989;48.962;9.182;2023-03-23T01:10:23;4.93;;;1.93;;
19679;SDS011;9989;48.962;9.182;2023-03-23T01:12:51;5.70;;;2.07;;
19679;SDS011;9989;48.962;9.182;2023-03-23T01:15:17;6.47;;;2.20;;
19679;SDS011;9989;48.962;9.182;2023-03-23T01:17:43;6.13;;;1.90;;
19679;SDS011;9989;48.962;9.182;2023-03-23T01:20:11;4.47;;;2.03;;
19679;SDS011;9989;48.962;9.182;2023-03-23T01:22:38;4.70;;;2.33;;
19679;SDS011;9989;48.962;9.182;2023-03-23T01:25:05;4.57;;;2.07;;
19679;SDS011;9989;48.962;9.182;2023-03-23T01:27:31;4.50;;;2.13;;
19679;SDS011;9989;48.962;9.182;2023-03-23T01:29:57;5.20;;;1.90;;
19679;SDS011;9989;48.962;9.182;2023-03-23T01:32:22;5.50;;;2.27;;
19679;SDS011;9989;48.962;9.182;2023-03-23T01:34:48;4.93;;;2.13;;
19679;SDS011;9989;48.962;9.182;2023-03-23T01:37:14;5.20;;;1.83;;
19679;SDS011;9989;48.962;9.182;2023-03-23T01:39:40;6.07;;;2.27;;
19679;SDS011;9989;48.962;9.182;2023-03-23T01:42:08;6.50;;;2.17;;
19679;SDS011;9989;48.962;9.182;2023-03-23T01:47:00;4.53;;;1.90;;
19679;SDS011;9989;48.962;9.182;2023-03-23T01:49:36;4.47;;;2.17;;
19679;SDS011;9989;48.962;9.182;2023-03-23T01:52:08;5.77;;;2.03;;
19679;SDS011;9989;48.962;9.182;2023-03-23T01:54:42;4.07;;;2.03;;
19679;SDS011;9989;48.962;9.182;2023-03-23T01:57:11;6.33;;;2.17;;
19679;SDS011;9989;48.962;9.182;2023-03-23T01:59:40;4.87;;;2.10;;
19679;SDS011;9989;48.962;9.182;2023-03-23T02:02:10;4.67;;;1.87;;
19679;SDS011;9989;48.962;9.182;2023-03-23T02:04:36;6.83;;;2.10;;
19679;SDS011;9989;48.962;9.182;2023-03-23T02:07:02;4.57;;;2.10;;
19679;SDS011;9989;48.962;9.182;2023-03-23T02:09:29;5.70;;;2.23;;
19679;SDS011;9989;48.962;9.182;2023-03-23T02:11:55;6.97;;;2.20;;
19679;SDS011;9989;48.962;9.182;2023-03-23T02:14:21;5.97;;;2.30;;
19679;SDS011;9989;48.962;9.182;2023-03-23T02:30:33;4.03;;;1.90;;
19679;SDS011;9989;48.962;9.182;2023-03-23T02:38:32;5.23;;;2.50;;
19679;SDS011;9989;48.962;9.182;2023-03-23T02:41:02;5.40;;;2.10;;
19679;SDS011;9989;48.962;9.182;2023-03-23T02:43:30;5.43;;;2.30;;
19679;SDS011;9989;48.962;9.182;2023-03-23T02:46:03;4.57;;;2.20;;
19679;SDS011;9989;48.962;9.182;2023-03-23T02:48:32;4.47;;;1.97;;
19679;SDS011;9989;48.962;9.182;2023-03-23T02:50:58;5.23;;;2.27;;
19679;SDS011;9989;48.962;9.182;2023-03-23T02:53:26;5.93;;;2.50;;
19679;SDS011;9989;48.962;9.182;2023-03-23T02:55:53;5.27;;;2.40;;
19679;SDS011;9989;48.962;9.182;2023-03-23T02:58:21;4.80;;;2.27;;
19679;SDS011;9989;48.962;9.182;2023-03-23T03:00:48;5.47;;;2.40;;
19679;SDS011;9989;48.962;9.182;2023-03-23T03:03:17;6.30;;;2.60;;
19679;SDS011;9989;48.962;9.182;2023-03-23T03:06:06;5.13;;;2.17;;
19679;SDS011;9989;48.962;9.182;2023-03-23T03:08:51;5.30;;;2.40;;
19679;SDS011;9989;48.962;9.182;2023-03-23T03:11:22;5.17;;;2.27;;
19679;SDS011;9989;48.962;9.182;2023-03-23T03:13:52;7.83;;;2.63;;
19679;SDS011;9989;48.962;9.182;2023-03-23T03:16:27;4.37;;;2.10;;
19679;SDS011;9989;48.962;9.182;2023-03-23T03:18:59;6.10;;;2.33;;
19679;SDS011;9989;48.962;9.182;2023-03-23T03:21:42;7.37;;;2.80;;
19679;SDS011;9989;48.962;9.182;2023-03-23T03:24:12;7.47;;;2.63;;
19679;SDS011;9989;48.962;9.182;2023-03-23T03:26:43;5.57;;;2.47;;
19679;SDS011;9989;48.962;9.182;2023-03-23T03:29:12;5.10;;;2.17;;
19679;SDS011;9989;48.962;9.182;2023-03-23T03:31:49;5.73;;;2.43;;
19679;SDS011;9989;48.962;9.182;2023-03-23T03:34:20;5.13;;;2.47;;
19679;SDS011;9989;48.962;9.182;2023-03-23T03:36:47;4.67;;;2.30;;
19679;SDS011;9989;48.962;9.182;2023-03-23T03:39:15;6.67;;;2.63;;
19679;SDS011;9989;48.962;9.182;2023-03-23T03:41:42;5.17;;;2.30;;
19679;SDS011;9989;48.962;9.182;2023-03-23T03:44:08;5.73;;;2.40;;
19679;SDS011;9989;48.962;9.182;2023-03-23T03:46:34;6.93;;;2.67;;
19679;SDS011;9989;48.962;9.182;2023-03-23T03:49:01;5.47;;;2.40;;
19679;SDS011;9989;48.962;9.182;2023-03-23T03:51:31;4.53;;;2.37;;
19679;SDS011;9989;48.962;9.182;2023-03-23T03:53:57;6.07;;;2.53;;
19679;SDS011;9989;48.962;9.182;2023-03-23T03:56:23;7.80;;;2.50;;
19679;SDS011;9989;48.962;9.182;2023-03-23T03:58:49;5.27;;;2.23;;
19679;SDS011;9989;48.962;9.182;2023-03-23T04:01:16;6.43;;;2.20;;
19679;SDS011;9989;48.962;9.182;2023-03-23T04:03:43;5.70;;;2.50;;
19679;SDS011;9989;48.962;9.182;2023-03-23T04:06:09;6.00;;;2.50;;
19679;SDS011;9989;48.962;9.182;2023-03-23T04:08:35;5.60;;;2.20;;
19679;SDS011;9989;48.962;9.182;2023-03-23T04:11:06;5.70;;;2.40;;
19679;SDS011;9989;48.962;9.182;2023-03-23T04:13:35;8.27;;;2.87;;
19679;SDS011;9989;48.962;9.182;2023-03-23T04:16:01;5.77;;;2.40;;
19679;SDS011;9989;48.962;9.182;2023-03-23T04:18:28;6.03;;;2.77;;
19679;SDS011;9989;48.962;9.182;2023-03-23T04:20:57;4.60;;;2.40;;
19679;SDS011;9989;48.962;9.182;2023-03-23T04:23:25;5.87;;;2.53;;
19679;SDS011;9989;48.962;9.182;2023-03-23T04:25:52;5.37;;;2.30;;
19679;SDS011;9989;48.962;9.182;2023-03-23T04:28:21;5.50;;;2.27;;
19679;SDS011;9989;48.962;9.182;2023-03-23T04:30:48;5.90;;;2.50;;
19679;SDS011;9989;48.962;9.182;2023-03-23T04:33:18;5.57;;;2.30;;
19679;SDS011;9989;48.962;9.182;2023-03-23T04:35:44;5.63;;;2.50;;
19679;SDS011;9989;48.962;9.182;2023-03-23T04:38:10;6.17;;;2.53;;
19679;SDS011;9989;48.962;9.182;2023-03-23T04:40:37;5.53;;;2.40;;
19679;SDS011;9989;48.962;9.182;2023-03-23T04:43:04;7.23;;;2.60;;
19679;SDS011;9989;48.962;9.182;2023-03-23T04:45:31;8.60;;;2.60;;
19679;SDS011;9989;48.962;9.182;2023-03-23T04:47:57;5.73;;;2.37;;
19679;SDS011;9989;48.962;9.182;2023-03-23T04:50:24;5.17;;;2.23;;
19679;SDS011;9989;48.962;9.182;2023-03-23T04:52:53;4.97;;;2.30;;
19679;SDS011;9989;48.962;9.182;2023-03-23T04:55:22;5.97;;;2.60;;
19679;SDS011;9989;48.962;9.182;2023-03-23T04:57:49;5.90;;;2.40;;
19679;SDS011;9989;48.962;9.182;2023-03-23T05:00:14;5.77;;;2.30;;
19679;SDS011;9989;48.962;9.182;2023-03-23T05:02:42;5.40;;;2.30;;
19679;SDS011;9989;48.962;9.182;2023-03-23T05:05:10;5.40;;;1.90;;
19679;SDS011;9989;48.962;9.182;2023-03-23T05:07:39;6.40;;;2.53;;
19679;SDS011;9989;48.962;9.182;2023-03-23T05:10:06;7.20;;;2.70;;
19679;SDS011;9989;48.962;9.182;2023-03-23T05:12:33;5.57;;;2.60;;
19679;SDS011;9989;48.962;9.182;2023-03-23T05:14:59;6.00;;;2.50;;
19679;SDS011;9989;48.962;9.182;2023-03-23T05:17:25;5.20;;;2.30;;
19679;SDS011;9989;48.962;9.182;2023-03-23T05:19:52;4.80;;;2.37;;
19679;SDS011;9989;48.962;9.182;2023-03-23T05:22:18;6.30;;;2.50;;
19679;SDS011;9989;48.962;9.182;2023-03-23T05:24:45;5.30;;;2.33;;
19679;SDS011;9989;48.962;9.182;2023-03-23T05:27:11;5.23;;;1.90;;
19679;SDS011;9989;48.962;9.182;2023-03-23T05:29:37;7.27;;;2.63;;
19679;SDS011;9989;48.962;9.182;2023-03-23T05:32:05;9.20;;;2.50;;
19679;SDS011;9989;48.962;9.182;2023-03-23T05:34:32;5.17;;;2.30;;
19679;SDS011;9989;48.962;9.182;2023-03-23T05:37:02;5.33;;;2.27;;
19679;SDS011;9989;48.962;9.182;2023-03-23T05:39:28;6.33;;;2.47;;
19679;SDS011;9989;48.962;9.182;2023-03-23T05:41:56;5.07;;;2.17;;
19679;SDS011;9989;48.962;9.182;2023-03-23T05:44:21;4.63;;;2.10;;
19679;SDS011;9989;48.962;9.182;2023-03-23T05:46:48;6.00;;;2.67;;
19679;SDS011;9989;48.962;9.182;2023-03-23T05:49:14;6.43;;;2.40;;
19679;SDS011;9989;48.962;9.182;2023-03-23T05:51:41;4.77;;;2.30;;
19679;SDS011;9989;48.962;9.182;2023-03-23T05:54:09;5.90;;;2.30;;
19679;SDS011;9989;48.962;9.182;2023-03-23T05:56:35;4.83;;;2.20;;
19679;SDS011;9989;48.962;9.182;2023-03-23T05:59:01;5.40;;;2.07;;
19679;SDS011;9989;48.962;9.182;2023-03-23T06:01:28;5.60;;;2.70;;
19679;SDS011;9989;48.962;9.182;2023-03-23T06:03:54;5.63;;;2.50;;
19679;SDS011;9989;48.962;9.182;2023-03-23T06:06:23;7.07;;;2.57;;
19679;SDS011;9989;48.962;9.182;2023-03-23T06:08:49;5.10;;;2.37;;
19679;SDS011;9989;48.962;9.182;2023-03-23T06:11:15;7.80;;;2.80;;
19679;SDS011;9989;48.962;9.182;2023-03-23T06:13:41;6.10;;;2.63;;
19679;SDS011;9989;48.962;9.182;2023-03-23T06:16:07;6.63;;;2.60;;
19679;SDS011;9989;48.962;9.182;2023-03-23T06:18:33;8.87;;;2.77;;
19679;SDS011;9989;48.962;9.182;2023-03-23T06:21:01;8.47;;;2.63;;
19679;SDS011;9989;48.962;9.182;2023-03-23T06:23:30;6.03;;;2.40;;
19679;SDS011;9989;48.962;9.182;2023-03-23T06:25:57;5.33;;;2.57;;
19679;SDS011;9989;48.962;9.182;2023-03-23T06:28:25;5.30;;;2.37;;
19679;SDS011;9989;48.962;9.182;2023-03-23T06:30:51;7.13;;;2.33;;
19679;SDS011;9989;48.962;9.182;2023-03-23T06:33:17;6.10;;;2.20;;
19679;SDS011;9989;48.962;9.182;2023-03-23T06:35:44;4.93;;;2.23;;
19679;SDS011;9989;48.962;9.182;2023-03-23T06:38:09;5.53;;;2.63;;
19679;SDS011;9989;48.962;9.182;2023-03-23T06:40:35;5.27;;;2.33;;
19679;SDS011;9989;48.962;9.182;2023-03-23T06:43:01;7.13;;;2.87;;
19679;SDS011;9989;48.962;9.182;2023-03-23T06:45:28;8.00;;;2.73;;
19679;SDS011;9989;48.962;9.182;2023-03-23T06:47:54;5.67;;;2.60;;
19679;SDS011;9989;48.962;9.182;2023-03-23T06:50:20;6.70;;;2.60;;
19679;SDS011;9989;48.962;9.182;2023-03-23T06:52:46;5.03;;;2.13;;
19679;SDS011;9989;48.962;9.182;2023-03-23T06:55:13;7.10;;;2.83;;
19679;SDS011;9989;48.962;9.182;2023-03-23T06:57:40;5.83;;;2.40;;
19679;SDS011;9989;48.962;9.182;2023-03-23T07:00:06;8.27;;;3.10;;
19679;SDS011;9989;48.962;9.182;2023-03-23T07:02:37;6.33;;;2.50;;
19679;SDS011;9989;48.962;9.182;2023-03-23T07:05:03;5.37;;;2.30;;
19679;SDS011;9989;48.962;9.182;2023-03-23T07:07:30;6.00;;;2.70;;
19679;SDS011;9989;48.962;9.182;2023-03-23T07:09:56;7.30;;;2.50;;
19679;SDS011;9989;48.962;9.182;2023-03-23T07:12:21;5.23;;;2.33;;
19679;SDS011;9989;48.962;9.182;2023-03-23T07:14:47;4.80;;;2.30;;
19679;SDS011;9989;48.962;9.182;2023-03-23T07:17:13;5.33;;;2.37;;
19679;SDS011;9989;48.962;9.182;2023-03-23T07:19:39;7.47;;;3.17;;
19679;SDS011;9989;48.962;9.182;2023-03-23T07:22:07;7.23;;;2.77;;
19679;SDS011;9989;48.962;9.182;2023-03-23T07:24:33;5.60;;;2.33;;
19679;SDS011;9989;48.962;9.182;2023-03-23T07:26:59;6.73;;;2.90;;
19679;SDS011;9989;48.962;9.182;2023-03-23T07:29:25;6.37;;;2.83;;
19679;SDS011;9989;48.962;9.182;2023-03-23T07:31:51;7.07;;;2.67;;
19679;SDS011;9989;48.962;9.182;2023-03-23T07:34:18;5.53;;;2.40;;
19679;SDS011;9989;48.962;9.182;2023-03-23T07:36:44;7.27;;;3.27;;
19679;SDS011;9989;48.962;9.182;2023-03-23T07:39:10;7.50;;;2.73;;
19679;SDS011;9989;48.962;9.182;2023-03-23T07:41:37;5.43;;;2.60;;
19679;SDS011;9989;48.962;9.182;2023-03-23T07:44:02;6.53;;;2.80;;
19679;SDS011;9989;48.962;9.182;2023-03-23T07:46:28;7.27;;;3.07;;
19679;SDS011;9989;48.962;9.182;2023-03-23T07:48:54;8.63;;;3.47;;
19679;SDS011;9989;48.962;9.182;2023-03-23T07:51:21;5.57;;;2.50;;
19679;SDS011;9989;48.962;9.182;2023-03-23T07:53:47;6.70;;;2.73;;
19679;SDS011;9989;48.962;9.182;2023-03-23T07:56:15;6.13;;;3.10;;
19679;SDS011;9989;48.962;9.182;2023-03-23T07:58:44;6.73;;;2.60;;
19679;SDS011;9989;48.962;9.182;2023-03-23T08:01:10;8.10;;;2.77;;
19679;SDS011;9989;48.962;9.182;2023-03-23T08:03:37;6.00;;;2.40;;
19679;SDS011;9989;48.962;9.182;2023-03-23T08:06:03;7.30;;;2.67;;
19679;SDS011;9989;48.962;9.182;2023-03-23T08:08:33;5.73;;;2.43;;
19679;SDS011;9989;48.962;9.182;2023-03-23T08:10:58;6.43;;;2.50;;
19679;SDS011;9989;48.962;9.182;2023-03-23T08:13:24;8.50;;;2.70;;
19679;SDS011;9989;48.962;9.182;2023-03-23T08:15:50;6.80;;;2.57;;
19679;SDS011;9989;48.962;9.182;2023-03-23T08:18:16;6.33;;;2.57;;
19679;SDS011;9989;48.962;9.182;2023-03-23T08:20:42;6.67;;;2.37;;
19679;SDS011;9989;48.962;9.182;2023-03-23T08:23:09;6.90;;;2.70;;
19679;SDS011;9989;48.962;9.182;2023-03-23T08:25:35;8.03;;;2.60;;
19679;SDS011;9989;48.962;9.182;2023-03-23T08:28:02;6.43;;;2.80;;
19679;SDS011;9989;48.962;9.182;2023-03-23T08:30:28;8.37;;;3.00;;
19679;SDS011;9989;48.962;9.182;2023-03-23T08:32:55;5.07;;;2.30;;
19679;SDS011;9989;48.962;9.182;2023-03-23T08:35:23;9.37;;;2.83;;
19679;SDS011;9989;48.962;9.182;2023-03-23T08:37:49;6.07;;;2.57;;
19679;SDS011;9989;48.962;9.182;2023-03-23T08:40:20;7.17;;;2.60;;
19679;SDS011;9989;48.962;9.182;2023-03-23T08:42:48;6.07;;;2.37;;
19679;SDS011;9989;48.962;9.182;2023-03-23T08:45:16;6.23;;;2.77;;
19679;SDS011;9989;48.962;9.182;2023-03-23T08:47:44;8.93;;;2.97;;
19679;SDS011;9989;48.962;9.182;2023-03-23T08:50:14;11.63;;;4.37;;
19679;SDS011;9989;48.962;9.182;2023-03-23T08:52:40;10.53;;;4.23;;
19679;SDS011;9989;48.962;9.182;2023-03-23T08:55:06;7.03;;;3.10;;
19679;SDS011;9989;48.962;9.182;2023-03-23T08:57:33;7.03;;;2.50;;
19679;SDS011;9989;48.962;9.182;2023-03-23T09:00:00;7.93;;;2.80;;
19679;SDS011;9989;48.962;9.182;2023-03-23T09:02:40;5.03;;;2.40;;
19679;SDS011;9989;48.962;9.182;2023-03-23T09:05:07;5.23;;;2.40;;
19679;SDS011;9989;48.962;9.182;2023-03-23T09:07:35;6.33;;;2.80;;
19679;SDS011;9989;48.962;9.182;2023-03-23T09:10:00;6.20;;;2.33;;
19679;SDS011;9989;48.962;9.182;2023-03-23T09:12:27;5.23;;;2.57;;
19679;SDS011;9989;48.962;9.182;2023-03-23T09:14:53;6.50;;;2.60;;
19679;SDS011;9989;48.962;9.182;2023-03-23T09:17:18;5.77;;;2.50;;
19679;SDS011;9989;48.962;9.182;2023-03-23T09:19:44;7.27;;;3.43;;
19679;SDS011;9989;48.962;9.182;2023-03-23T09:22:09;6.87;;;2.80;;
19679;SDS011;9989;48.962;9.182;2023-03-23T09:24:35;6.47;;;2.90;;
19679;SDS011;9989;48.962;9.182;2023-03-23T09:27:01;10.47;;;3.90;;
19679;SDS011;9989;48.962;9.182;2023-03-23T09:29:27;5.53;;;2.33;;
19679;SDS011;9989;48.962;9.182;2023-03-23T09:31:53;6.43;;;2.60;;
19679;SDS011;9989;48.962;9.182;2023-03-23T09:34:19;7.43;;;2.37;;
19679;SDS011;9989;48.962;9.182;2023-03-23T09:36:44;7.03;;;2.30;;
19679;SDS011;9989;48.962;9.182;2023-03-23T09:39:11;4.63;;;2.10;;
19679;SDS011;9989;48.962;9.182;2023-03-23T09:44:40;9.23;;;2.30;;
19679;SDS011;9989;48.962;9.182;2023-03-23T09:50:15;4.77;;;2.00;;
19679;SDS011;9989;48.962;9.182;2023-03-23T09:52:56;3.43;;;1.40;;
19679;SDS011;9989;48.962;9.182;2023-03-23T09:55:28;4.97;;;2.13;;
19679;SDS011;9989;48.962;9.182;2023-03-23T09:58:12;3.67;;;1.60;;
19679;SDS011;9989;48.962;9.182;2023-03-23T10:00:46;6.00;;;2.27;;
19679;SDS011;9989;48.962;9.182;2023-03-23T10:03:18;4.73;;;2.00;;
19679;SDS011;9989;48.962;9.182;2023-03-23T10:05:50;5.70;;;1.97;;
19679;SDS011;9989;48.962;9.182;2023-03-23T10:08:18;4.53;;;1.87;;
19679;SDS011;9989;48.962;9.182;2023-03-23T10:16:08;5.03;;;2.10;;
19679;SDS011;9989;48.962;9.182;2023-03-23T10:21:13;4.73;;;1.80;;
19679;SDS011;9989;48.962;9.182;2023-03-23T10:23:53;6.40;;;2.37;;
19679;SDS011;9989;48.962;9.182;2023-03-23T10:26:22;4.20;;;1.90;;
19679;SDS011;9989;48.962;9.182;2023-03-23T10:29:11;6.80;;;2.23;;
19679;SDS011;9989;48.962;9.182;2023-03-23T10:31:43;5.27;;;1.90;;
19679;SDS011;9989;48.962;9.182;2023-03-23T10:35:02;5.30;;;1.90;;
19679;SDS011;9989;48.962;9.182;2023-03-23T10:39:57;4.43;;;1.87;;
19679;SDS011;9989;48.962;9.182;2023-03-23T10:42:28;4.17;;;1.87;;
19679;SDS011;9989;48.962;9.182;2023-03-23T10:44:56;4.43;;;1.80;;
19679;SDS011;9989;48.962;9.182;2023-03-23T10:47:24;3.87;;;1.97;;
19679;SDS011;9989;48.962;9.182;2023-03-23T10:55:05;3.70;;;1.53;;
19679;SDS011;9989;48.962;9.182;2023-03-23T10:57:34;6.10;;;1.80;;
19679;SDS011;9989;48.962;9.182;2023-03-23T11:02:57;3.17;;;1.60;;
19679;SDS011;9989;48.962;9.182;2023-03-23T11:05:50;5.13;;;1.57;;
19679;SDS011;9989;48.962;9.182;2023-03-23T11:08:22;4.23;;;1.83;;
19679;SDS011;9989;48.962;9.182;2023-03-23T11:10:51;4.63;;;1.73;;
19679;SDS011;9989;48.962;9.182;2023-03-23T11:13:23;8.07;;;2.30;;
19679;SDS011;9989;48.962;9.182;2023-03-23T11:15:56;4.40;;;1.50;;
19679;SDS011;9989;48.962;9.182;2023-03-23T11:18:38;4.43;;;2.00;;
19679;SDS011;9989;48.962;9.182;2023-03-23T11:21:07;4.23;;;1.97;;
19679;SDS011;9989;48.962;9.182;2023-03-23T11:23:37;5.13;;;2.00;;
19679;SDS011;9989;48.962;9.182;2023-03-23T11:26:13;4.50;;;1.90;;
19679;SDS011;9989;48.962;9.182;2023-03-23T11:28:52;5.30;;;2.43;;
19679;SDS011;9989;48.962;9.182;2023-03-23T11:31:22;4.63;;;2.00;;
19679;SDS011;9989;48.962;9.182;2023-03-23T11:33:56;4.20;;;1.87;;
19679;SDS011;9989;48.962;9.182;2023-03-23T11:36:28;4.23;;;1.90;;
19679;SDS011;9989;48.962;9.182;2023-03-23T11:38:56;4.27;;;2.00;;
19679;SDS011;9989;48.962;9.182;2023-03-23T11:41:22;4.50;;;1.90;;
19679;SDS011;9989;48.962;9.182;2023-03-23T11:43:56;5.37;;;1.80;;
19679;SDS011;9989;48.962;9.182;2023-03-23T11:55:19;5.27;;;2.03;;
19679;SDS011;9989;48.962;9.182;2023-03-23T11:57:50;4.97;;;2.00;;
19679;SDS011;9989;48.962;9.182;2023-03-23T12:00:18;5.23;;;1.97;;
19679;SDS011;9989;48.962;9.182;2023-03-23T12:02:54;4.87;;;1.90;;
19679;SDS011;9989;48.962;9.182;2023-03-23T12:05:43;4.67;;;1.90;;
19679;SDS011;9989;48.962;9.182;2023-03-23T12:24:50;5.20;;;2.30;;
19679;SDS011;9989;48.962;9.182;2023-03-23T12:27:54;5.00;;;2.20;;
19679;SDS011;9989;48.962;9.182;2023-03-23T12:38:40;4.97;;;2.10;;
19679;SDS011;9989;48.962;9.182;2023-03-23T12:44:04;5.47;;;2.17;;
19679;SDS011;9989;48.962;9.182;2023-03-23T12:49:07;5.73;;;2.57;;
19679;SDS011;9989;48.962;9.182;2023-03-23T12:51:45;5.47;;;2.17;;
19679;SDS011;9989;48.962;9.182;2023-03-23T12:54:37;5.47;;;2.20;;
19679;SDS011;9989;48.962;9.182;2023-03-23T12:57:19;4.83;;;2.00;;
19679;SDS011;9989;48.962;9.182;2023-03-23T13:02:39;5.83;;;2.30;;
19679;SDS011;9989;48.962;9.182;2023-03-23T13:05:08;6.43;;;2.00;;
19679;SDS011;9989;48.962;9.182;2023-03-23T13:07:39;3.97;;;2.07;;
19679;SDS011;9989;48.962;9.182;2023-03-23T13:13:11;4.57;;;2.07;;
19679;SDS011;9989;48.962;9.182;2023-03-23T13:24:13;5.83;;;1.97;;
19679;SDS011;9989;48.962;9.182;2023-03-23T13:26:42;6.40;;;2.10;;
19679;SDS011;9989;48.962;9.182;2023-03-23T13:31:35;5.40;;;2.00;;
19679;SDS011;9989;48.962;9.182;2023-03-23T13:36:36;4.90;;;2.03;;
19679;SDS011;9989;48.962;9.182;2023-03-23T13:39:06;6.60;;;2.50;;
19679;SDS011;9989;48.962;9.182;2023-03-23T13:41:47;6.87;;;2.40;;
19679;SDS011;9989;48.962;9.182;2023-03-23T13:58:26;5.80;;;2.37;;
19679;SDS011;9989;48.962;9.182;2023-03-23T14:05:50;4.83;;;2.17;;
19679;SDS011;9989;48.962;9.182;2023-03-23T14:15:53;6.70;;;2.63;;
19679;SDS011;9989;48.962;9.182;2023-03-23T14:18:32;4.97;;;2.50;;
19679;SDS011;9989;48.962;9.182;2023-03-23T14:21:05;5.60;;;2.33;;
19679;SDS011;9989;48.962;9.182;2023-03-23T14:23:38;5.43;;;2.40;;
19679;SDS011;9989;48.962;9.182;2023-03-23T14:26:09;5.67;;;2.50;;
19679;SDS011;9989;48.962;9.182;2023-03-23T14:28:40;4.97;;;2.03;;
19679;SDS011;9989;48.962;9.182;2023-03-23T14:31:20;4.63;;;2.10;;
19679;SDS011;9989;48.962;9.182;2023-03-23T14:33:48;5.63;;;2.20;;
19679;SDS011;9989;48.962;9.182;2023-03-23T14:36:28;6.50;;;2.47;;
19679;SDS011;9989;48.962;9.182;2023-03-23T14:38:57;5.33;;;2.03;;
19679;SDS011;9989;48.962;9.182;2023-03-23T14:41:36;6.23;;;2.20;;
19679;SDS011;9989;48.962;9.182;2023-03-23T14:44:02;5.13;;;2.03;;
19679;SDS011;9989;48.962;9.182;2023-03-23T14:46:31;8.03;;;2.90;;
19679;SDS011;9989;48.962;9.182;2023-03-23T14:48:59;5.70;;;2.20;;
19679;SDS011;9989;48.962;9.182;2023-03-23T14:51:26;5.70;;;2.40;;
19679;SDS011;9989;48.962;9.182;2023-03-23T14:53:52;6.27;;;2.17;;
19679;SDS011;9989;48.962;9.182;2023-03-23T14:56:19;5.47;;;2.23;;
19679;SDS011;9989;48.962;9.182;2023-03-23T14:58:48;5.30;;;2.40;;
19679;SDS011;9989;48.962;9.182;2023-03-23T15:03:56;7.17;;;2.53;;
19679;SDS011;9989;48.962;9.182;2023-03-23T15:06:30;5.67;;;2.50;;
19679;SDS011;9989;48.962;9.182;2023-03-23T15:08:59;5.07;;;2.30;;
19679;SDS011;9989;48.962;9.182;2023-03-23T15:11:34;5.77;;;2.37;;
19679;SDS011;9989;48.962;9.182;2023-03-23T15:14:03;5.37;;;2.23;;
19679;SDS011;9989;48.962;9.182;2023-03-23T15:16:39;4.67;;;2.37;;
19679;SDS011;9989;48.962;9.182;2023-03-23T15:19:16;5.80;;;2.60;;
19679;SDS011;9989;48.962;9.182;2023-03-23T15:22:07;5.57;;;2.77;;
19679;SDS011;9989;48.962;9.182;2023-03-23T15:24:47;6.83;;;3.10;;
19679;SDS011;9989;48.962;9.182;2023-03-23T15:27:16;8.27;;;5.20;;
19679;SDS011;9989;48.962;9.182;2023-03-23T15:29:52;9.07;;;4.90;;
19679;SDS011;9989;48.962;9.182;2023-03-23T15:32:27;7.23;;;3.50;;
19679;SDS011;9989;48.962;9.182;2023-03-23T15:35:03;12.87;;;3.87;;
19679;SDS011;9989;48.962;9.182;2023-03-23T15:37:37;10.60;;;3.30;;
19679;SDS011;9989;48.962;9.182;2023-03-23T15:40:15;11.00;;;3.60;;
19679;SDS011;9989;48.962;9.182;2023-03-23T15:42:42;9.97;;;4.00;;
19679;SDS011;9989;48.962;9.182;2023-03-23T15:52:41;7.60;;;3.27;;
19679;SDS011;9989;48.962;9.182;2023-03-23T15:58:00;7.90;;;3.80;;
19679;SDS011;9989;48.962;9.182;2023-03-23T16:00:28;12.50;;;5.57;;
19679;SDS011;9989;48.962;9.182;2023-03-23T16:02:55;12.17;;;7.03;;
19679;SDS011;9989;48.962;9.182;2023-03-23T16:05:23;15.57;;;8.60;;
19679;SDS011;9989;48.962;9.182;2023-03-23T16:07:49;12.27;;;8.40;;
19679;SDS011;9989;48.962;9.182;2023-03-23T16:10:19;12.37;;;7.40;;
19679;SDS011;9989;48.962;9.182;2023-03-23T16:12:46;12.00;;;7.17;;
19679;SDS011;9989;48.962;9.182;2023-03-23T16:15:12;11.10;;;6.27;;
19679;SDS011;9989;48.962;9.182;2023-03-23T16:17:39;9.33;;;5.30;;
19679;SDS011;9989;48.962;9.182;2023-03-23T16:22:38;11.17;;;6.50;;
19679;SDS011;9989;48.962;9.182;2023-03-23T16:25:04;13.37;;;6.90;;
19679;SDS011;9989;48.962;9.182;2023-03-23T16:27:31;11.23;;;6.10;;
19679;SDS011;9989;48.962;9.182;2023-03-23T16:29:57;9.83;;;4.60;;
19679;SDS011;9989;48.962;9.182;2023-03-23T16:32:24;9.00;;;3.17;;
19679;SDS011;9989;48.962;9.182;2023-03-23T16:34:50;9.57;;;3.97;;
19679;SDS011;9989;48.962;9.182;2023-03-23T16:37:17;7.07;;;3.27;;
19679;SDS011;9989;48.962;9.182;2023-03-23T16:39:42;6.77;;;3.30;;
19679;SDS011;9989;48.962;9.182;2023-03-23T16:42:08;9.47;;;3.70;;
19679;SDS011;9989;48.962;9.182;2023-03-23T16:44:33;8.90;;;4.23;;
19679;SDS011;9989;48.962;9.182;2023-03-23T16:46:59;11.47;;;4.00;;
19679;SDS011;9989;48.962;9.182;2023-03-23T16:49:25;7.97;;;3.50;;
19679;SDS011;9989;48.962;9.182;2023-03-23T16:51:50;8.30;;;3.47;;
19679;SDS011;9989;48.962;9.182;2023-03-23T16:54:16;7.43;;;3.60;;
19679;SDS011;9989;48.962;9.182;2023-03-23T16:56:42;9.37;;;3.67;;
19679;SDS011;9989;48.962;9.182;2023-03-23T16:59:10;7.93;;;3.80;;
19679;SDS011;9989;48.962;9.182;2023-03-23T17:01:36;7.87;;;4.00;;
19679;SDS011;9989;48.962;9.182;2023-03-23T17:04:02;8.70;;;4.67;;
19679;SDS011;9989;48.962;9.182;2023-03-23T17:06:28;10.77;;;4.90;;
19679;SDS011;9989;48.962;9.182;2023-03-23T17:08:54;8.70;;;4.13;;
19679;SDS011;9989;48.962;9.182;2023-03-23T17:11:19;9.23;;;5.20;;
19679;SDS011;9989;48.962;9.182;2023-03-23T17:13:45;10.00;;;4.60;;
19679;SDS011;9989;48.962;9.182;2023-03-23T17:16:11;9.10;;;4.20;;
19679;SDS011;9989;48.962;9.182;2023-03-23T17:18:36;8.80;;;4.93;;
19679;SDS011;9989;48.962;9.182;2023-03-23T17:21:02;8.93;;;4.90;;
19679;SDS011;9989;48.962;9.182;2023-03-23T17:23:27;8.80;;;4.60;;
19679;SDS011;9989;48.962;9.182;2023-03-23T17:25:53;10.70;;;4.57;;
19679;SDS011;9989;48.962;9.182;2023-03-23T17:28:19;8.03;;;4.23;;
19679;SDS011;9989;48.962;9.182;2023-03-23T17:30:45;7.83;;;3.87;;
19679;SDS011;9989;48.962;9.182;2023-03-23T17:33:11;7.13;;;3.73;;
19679;SDS011;9989;48.962;9.182;2023-03-23T17:35:37;10.90;;;5.93;;
19679;SDS011;9989;48.962;9.182;2023-03-23T17:38:03;11.57;;;8.23;;